sensor_id;sensor_type;location;lat;lon;timestamp;temperature;humidity
18721;DHT22;9489;50.948;3.114;2023-04-15T00:01:15;10.80;99.90
18721;DHT22;9489;50.948;3.114;2023-04-15T00:03:43;10.80;99.90
18721;DHT22;9489;50.948;3.114;2023-04-15T00:06:09;10.80;99.90
18721;DHT22;9489;50.948;3.114;2023-04-15T00:08:35;10.70;99.90
18721;DHT22;9489;50.948;3.114;2023-04-15T00:11:00;10.70;99.90
18721;DHT22;9489;50.948;3.114;2023-04-15T00:13:32;10.70;99.90
18721;DHT22;9489;50.948;3.114;2023-04-15T00:15:59;10.70;99.90
18721;DHT22;9489;50.948;3.114;2023-04-15T00:18:25;10.70;99.90
18721;DHT22;9489;50.948;3.114;2023-04-15T00:20:51;10.70;99.90
18721;DHT22;9489;50.948;3.114;2023-04-15T00:23:17;10.60;99.90
18721;DHT22;9489;50.948;3.114;2023-04-15T00:25:42;10.60;99.90
18721;DHT22;9489;50.948;3.114;2023-04-15T00:28:08;10.60;99.90
18721;DHT22;9489;50.948;3.114;2023-04-15T00:30:34;10.60;99.90
18721;DHT22;9489;50.948;3.114;2023-04-15T00:33:00;10.60;99.90
18721;DHT22;9489;50.948;3.114;2023-04-15T00:35:26;10.50;99.90
18721;DHT22;9489;50.948;3.114;2023-04-15T00:37:52;10.50;99.90
18721;DHT22;9489;50.948;3.114;2023-04-15T00:40:20;10.50;99.90
18721;DHT22;9489;50.948;3.114;2023-04-15T00:42:46;10.50;99.90
18721;DHT22;9489;50.948;3.114;2023-04-15T00:45:11;10.40;99.90
18721;DHT22;9489;50.948;3.114;2023-04-15T00:47:39;10.50;99.90
18721;DHT22;9489;50.948;3.114;2023-04-15T00:50:06;10.40;99.90
18721;DHT22;9489;50.948;3.114;2023-04-15T00:52:32;10.40;99.90
18721;DHT22;9489;50.948;3.114;2023-04-15T00:54:59;10.40;99.90
18721;DHT22;9489;50.948;3.114;2023-04-15T00:57:25;10.40;99.90
18721;DHT22;9489;50.948;3.114;2023-04-15T00:59:52;10.40;99.90
18721;DHT22;9489;50.948;3.114;2023-04-15T01:02:19;10.40;99.90
18721;DHT22;9489;50.948;3.114;2023-04-15T01:04:45;10.40;99.90
18721;DHT22;9489;50.948;3.114;2023-04-15T01:07:12;10.40;99.90
18721;DHT22;9489;50.948;3.114;2023-04-15T01:09:37;10.30;99.90
18721;DHT22;9489;50.948;3.114;2023-04-15T01:12:03;10.30;99.90
18721;DHT22;9489;50.948;3.114;2023-04-15T01:14:30;10.20;99.90
18721;DHT22;9489;50.948;3.114;2023-04-15T01:16:56;10.20;99.90
18721;DHT22;9489;50.948;3.114;2023-04-15T01:19:22;10.20;99.90
18721;DHT22;9489;50.948;3.114;2023-04-15T01:21:47;10.10;99.90
18721;DHT22;9489;50.948;3.114;2023-04-15T01:24:14;10.10;99.90
18721;DHT22;9489;50.948;3.114;2023-04-15T01:26:42;10.00;99.90
18721;DHT22;9489;50.948;3.114;2023-04-15T01:29:07;10.10;99.90
18721;DHT22;9489;50.948;3.114;2023-04-15T01:31:33;10.10;99.90
18721;DHT22;9489;50.948;3.114;2023-04-15T01:33:59;10.00;99.90
18721;DHT22;9489;50.948;3.114;2023-04-15T01:36:25;10.10;99.90
18721;DHT22;9489;50.948;3.114;2023-04-15T01:38:51;10.00;99.90
18721;DHT22;9489;50.948;3.114;2023-04-15T01:41:22;10.00;99.90
18721;DHT22;9489;50.948;3.114;2023-04-15T01:43:49;10.10;99.90
18721;DHT22;9489;50.948;3.114;2023-04-15T01:46:15;10.00;99.90
18721;DHT22;9489;50.948;3.114;2023-04-15T01:48:41;10.00;99.90
18721;DHT22;9489;50.948;3.114;2023-04-15T01:51:06;10.00;99.90
18721;DHT22;9489;50.948;3.114;2023-04-15T01:53:32;9.90;99.90
18721;DHT22;9489;50.948;3.114;2023-04-15T01:55:58;10.00;99.90
18721;DHT22;9489;50.948;3.114;2023-04-15T01:58:24;9.90;99.90
18721;DHT22;9489;50.948;3.114;2023-04-15T02:00:49;9.80;99.90
18721;DHT22;9489;50.948;3.114;2023-04-15T02:03:16;9.80;99.90
18721;DHT22;9489;50.948;3.114;2023-04-15T02:05:42;9.80;99.90
18721;DHT22;9489;50.948;3.114;2023-04-15T02:08:08;9.80;99.90
18721;DHT22;9489;50.948;3.114;2023-04-15T02:10:34;9.80;99.90
18721;DHT22;9489;50.948;3.114;2023-04-15T02:13:00;9.70;99.90
18721;DHT22;9489;50.948;3.114;2023-04-15T02:15:26;9.70;99.90
18721;DHT22;9489;50.948;3.114;2023-04-15T02:17:52;9.70;99.90
18721;DHT22;9489;50.948;3.114;2023-04-15T02:20:20;9.70;99.90
18721;DHT22;9489;50.948;3.114;2023-04-15T02:22:46;9.70;99.90
18721;DHT22;9489;50.948;3.114;2023-04-15T02:25:13;9.60;99.90
18721;DHT22;9489;50.948;3.114;2023-04-15T02:27:39;9.60;99.90
18721;DHT22;9489;50.948;3.114;2023-04-15T02:30:05;9.60;99.90
18721;DHT22;9489;50.948;3.114;2023-04-15T02:32:31;9.50;99.90
18721;DHT22;9489;50.948;3.114;2023-04-15T02:35:02;9.50;99.90
18721;DHT22;9489;50.948;3.114;2023-04-15T02:37:28;9.50;99.90
18721;DHT22;9489;50.948;3.114;2023-04-15T02:39:56;9.50;99.90
18721;DHT22;9489;50.948;3.114;2023-04-15T02:42:21;9.50;99.90
18721;DHT22;9489;50.948;3.114;2023-04-15T02:44:47;9.50;99.90
18721;DHT22;9489;50.948;3.114;2023-04-15T02:47:12;9.40;99.90
18721;DHT22;9489;50.948;3.114;2023-04-15T02:49:39;9.40;99.90
18721;DHT22;9489;50.948;3.114;2023-04-15T02:52:05;9.40;99.90
18721;DHT22;9489;50.948;3.114;2023-04-15T02:54:31;9.40;99.90
18721;DHT22;9489;50.948;3.114;2023-04-15T02:56:58;9.40;99.90
18721;DHT22;9489;50.948;3.114;2023-04-15T02:59:24;9.30;99.90
18721;DHT22;9489;50.948;3.114;2023-04-15T03:01:49;9.30;99.90
18721;DHT22;9489;50.948;3.114;2023-04-15T03:04:15;9.30;99.90
18721;DHT22;9489;50.948;3.114;2023-04-15T03:06:41;9.30;99.90
18721;DHT22;9489;50.948;3.114;2023-04-15T03:09:07;9.30;99.90
18721;DHT22;9489;50.948;3.114;2023-04-15T03:11:32;9.20;99.90
18721;DHT22;9489;50.948;3.114;2023-04-15T03:13:58;9.20;99.90
18721;DHT22;9489;50.948;3.114;2023-04-15T03:16:24;9.20;99.90
18721;DHT22;9489;50.948;3.114;2023-04-15T03:18:50;9.20;99.90
18721;DHT22;9489;50.948;3.114;2023-04-15T03:21:15;9.30;99.90
18721;DHT22;9489;50.948;3.114;2023-04-15T03:23:41;9.30;99.90
18721;DHT22;9489;50.948;3.114;2023-04-15T03:26:07;9.20;99.90
18721;DHT22;9489;50.948;3.114;2023-04-15T03:28:32;9.20;99.90
18721;DHT22;9489;50.948;3.114;2023-04-15T03:30:58;9.20;99.90
18721;DHT22;9489;50.948;3.114;2023-04-15T03:33:24;9.30;99.90
18721;DHT22;9489;50.948;3.114;2023-04-15T03:35:50;9.30;99.90
18721;DHT22;9489;50.948;3.114;2023-04-15T03:38:17;9.30;99.90
18721;DHT22;9489;50.948;3.114;2023-04-15T03:40:42;9.30;99.90
18721;DHT22;9489;50.948;3.114;2023-04-15T03:43:08;9.30;99.90
18721;DHT22;9489;50.948;3.114;2023-04-15T03:45:34;9.30;99.90
18721;DHT22;9489;50.948;3.114;2023-04-15T03:48:00;9.30;99.90
18721;DHT22;9489;50.948;3.114;2023-04-15T03:50:25;9.30;99.90
18721;DHT22;9489;50.948;3.114;2023-04-15T03:52:52;9.30;99.90
18721;DHT22;9489;50.948;3.114;2023-04-15T03:55:17;9.30;99.90
18721;DHT22;9489;50.948;3.114;2023-04-15T03:57:44;9.30;99.90
18721;DHT22;9489;50.948;3.114;2023-04-15T04:00:10;9.30;99.90
18721;DHT22;9489;50.948;3.114;2023-04-15T04:02:36;9.40;99.90
18721;DHT22;9489;50.948;3.114;2023-04-15T04:05:01;9.40;99.90
18721;DHT22;9489;50.948;3.114;2023-04-15T04:07:27;9.40;99.90
18721;DHT22;9489;50.948;3.114;2023-04-15T04:09:53;9.40;99.90
18721;DHT22;9489;50.948;3.114;2023-04-15T04:12:18;9.50;99.90
18721;DHT22;9489;50.948;3.114;2023-04-15T04:14:44;9.50;99.90
18721;DHT22;9489;50.948;3.114;2023-04-15T04:17:10;9.50;99.90
18721;DHT22;9489;50.948;3.114;2023-04-15T04:19:36;9.40;99.90
18721;DHT22;9489;50.948;3.114;2023-04-15T04:22:01;9.40;99.90
18721;DHT22;9489;50.948;3.114;2023-04-15T04:24:27;9.40;99.90
18721;DHT22;9489;50.948;3.114;2023-04-15T04:26:53;9.40;99.90
18721;DHT22;9489;50.948;3.114;2023-04-15T04:29:18;9.40;99.90
18721;DHT22;9489;50.948;3.114;2023-04-15T04:31:44;9.40;99.90
18721;DHT22;9489;50.948;3.114;2023-04-15T04:34:11;9.40;99.90
18721;DHT22;9489;50.948;3.114;2023-04-15T04:36:36;9.50;99.90
18721;DHT22;9489;50.948;3.114;2023-04-15T04:39:02;9.50;99.90
18721;DHT22;9489;50.948;3.114;2023-04-15T04:41:28;9.50;99.90
18721;DHT22;9489;50.948;3.114;2023-04-15T04:43:54;9.50;99.90
18721;DHT22;9489;50.948;3.114;2023-04-15T04:46:19;9.50;99.90
18721;DHT22;9489;50.948;3.114;2023-04-15T04:48:46;9.40;99.90
18721;DHT22;9489;50.948;3.114;2023-04-15T04:51:11;9.50;99.90
18721;DHT22;9489;50.948;3.114;2023-04-15T04:53:37;9.50;99.90
18721;DHT22;9489;50.948;3.114;2023-04-15T04:56:03;9.50;99.90
18721;DHT22;9489;50.948;3.114;2023-04-15T04:58:28;9.50;99.90
18721;DHT22;9489;50.948;3.114;2023-04-15T05:00:54;9.50;99.90
18721;DHT22;9489;50.948;3.114;2023-04-15T05:03:21;9.50;99.90
18721;DHT22;9489;50.948;3.114;2023-04-15T05:05:46;9.50;99.90
18721;DHT22;9489;50.948;3.114;2023-04-15T05:08:14;9.50;99.90
18721;DHT22;9489;50.948;3.114;2023-04-15T05:10:39;9.50;99.90
18721;DHT22;9489;50.948;3.114;2023-04-15T05:13:05;9.50;99.90
18721;DHT22;9489;50.948;3.114;2023-04-15T05:15:31;9.50;99.90
18721;DHT22;9489;50.948;3.114;2023-04-15T05:17:59;9.50;99.90
18721;DHT22;9489;50.948;3.114;2023-04-15T05:20:25;9.50;99.90
18721;DHT22;9489;50.948;3.114;2023-04-15T05:22:50;9.50;99.90
18721;DHT22;9489;50.948;3.114;2023-04-15T05:25:16;9.50;99.90
18721;DHT22;9489;50.948;3.114;2023-04-15T05:27:42;9.60;99.90
18721;DHT22;9489;50.948;3.114;2023-04-15T05:30:08;9.60;99.90
18721;DHT22;9489;50.948;3.114;2023-04-15T05:32:34;9.60;99.90
18721;DHT22;9489;50.948;3.114;2023-04-15T05:34:59;9.60;99.90
18721;DHT22;9489;50.948;3.114;2023-04-15T05:37:25;9.60;99.90
18721;DHT22;9489;50.948;3.114;2023-04-15T05:39:51;9.60;99.90
18721;DHT22;9489;50.948;3.114;2023-04-15T05:42:17;9.70;99.90
18721;DHT22;9489;50.948;3.114;2023-04-15T05:44:42;9.70;99.90
18721;DHT22;9489;50.948;3.114;2023-04-15T05:47:08;9.70;99.90
18721;DHT22;9489;50.948;3.114;2023-04-15T05:49:35;9.80;99.90
18721;DHT22;9489;50.948;3.114;2023-04-15T05:52:01;9.80;99.90
18721;DHT22;9489;50.948;3.114;2023-04-15T05:54:26;9.90;99.90
18721;DHT22;9489;50.948;3.114;2023-04-15T05:56:53;9.80;99.90
18721;DHT22;9489;50.948;3.114;2023-04-15T05:59:18;9.90;99.90
18721;DHT22;9489;50.948;3.114;2023-04-15T06:01:44;9.90;99.90
18721;DHT22;9489;50.948;3.114;2023-04-15T06:04:09;9.90;99.90
18721;DHT22;9489;50.948;3.114;2023-04-15T06:06:36;9.90;99.90
18721;DHT22;9489;50.948;3.114;2023-04-15T06:09:03;9.90;99.90
18721;DHT22;9489;50.948;3.114;2023-04-15T06:11:28;9.90;99.90
18721;DHT22;9489;50.948;3.114;2023-04-15T06:13:54;9.90;99.90
18721;DHT22;9489;50.948;3.114;2023-04-15T06:16:21;9.90;99.90
18721;DHT22;9489;50.948;3.114;2023-04-15T06:18:47;9.90;99.90
18721;DHT22;9489;50.948;3.114;2023-04-15T06:21:13;9.90;99.90
18721;DHT22;9489;50.948;3.114;2023-04-15T06:23:39;9.90;99.90
18721;DHT22;9489;50.948;3.114;2023-04-15T06:26:06;9.90;99.90
18721;DHT22;9489;50.948;3.114;2023-04-15T06:28:31;10.00;99.90
18721;DHT22;9489;50.948;3.114;2023-04-15T06:30:57;10.00;99.90
18721;DHT22;9489;50.948;3.114;2023-04-15T06:33:22;9.90;99.90
18721;DHT22;9489;50.948;3.114;2023-04-15T06:35:48;10.00;99.90
18721;DHT22;9489;50.948;3.114;2023-04-15T06:38:14;10.00;99.90
18721;DHT22;9489;50.948;3.114;2023-04-15T06:40:40;10.00;99.90
18721;DHT22;9489;50.948;3.114;2023-04-15T06:43:06;10.00;99.90
18721;DHT22;9489;50.948;3.114;2023-04-15T06:45:32;10.00;99.90
18721;DHT22;9489;50.948;3.114;2023-04-15T06:47:58;10.00;99.90
18721;DHT22;9489;50.948;3.114;2023-04-15T06:50:23;10.00;99.90
18721;DHT22;9489;50.948;3.114;2023-04-15T06:52:49;9.90;99.90
18721;DHT22;9489;50.948;3.114;2023-04-15T06:55:15;10.00;99.90
18721;DHT22;9489;50.948;3.114;2023-04-15T06:57:40;10.00;99.90
18721;DHT22;9489;50.948;3.114;2023-04-15T07:00:06;9.90;99.90
18721;DHT22;9489;50.948;3.114;2023-04-15T07:02:33;9.90;99.90
18721;DHT22;9489;50.948;3.114;2023-04-15T07:04:58;10.00;99.90
18721;DHT22;9489;50.948;3.114;2023-04-15T07:07:24;10.00;99.90
18721;DHT22;9489;50.948;3.114;2023-04-15T07:09:50;10.00;99.90
18721;DHT22;9489;50.948;3.114;2023-04-15T07:12:18;10.10;99.90
18721;DHT22;9489;50.948;3.114;2023-04-15T07:14:43;10.20;99.90
18721;DHT22;9489;50.948;3.114;2023-04-15T07:17:09;10.30;99.90
18721;DHT22;9489;50.948;3.114;2023-04-15T07:19:35;10.30;99.90
18721;DHT22;9489;50.948;3.114;2023-04-15T07:22:01;10.40;99.90
18721;DHT22;9489;50.948;3.114;2023-04-15T07:24:27;10.50;99.90
18721;DHT22;9489;50.948;3.114;2023-04-15T07:26:55;10.60;99.90
18721;DHT22;9489;50.948;3.114;2023-04-15T07:29:23;10.60;99.90
18721;DHT22;9489;50.948;3.114;2023-04-15T07:31:48;10.60;99.90
18721;DHT22;9489;50.948;3.114;2023-04-15T07:34:14;10.70;99.90
18721;DHT22;9489;50.948;3.114;2023-04-15T07:36:41;10.70;99.90
18721;DHT22;9489;50.948;3.114;2023-04-15T07:39:06;10.70;99.90
18721;DHT22;9489;50.948;3.114;2023-04-15T07:41:32;10.70;99.90
18721;DHT22;9489;50.948;3.114;2023-04-15T07:43:58;10.70;99.90
18721;DHT22;9489;50.948;3.114;2023-04-15T07:46:23;10.80;99.90
18721;DHT22;9489;50.948;3.114;2023-04-15T07:48:52;10.80;99.90
18721;DHT22;9489;50.948;3.114;2023-04-15T07:51:18;10.80;99.90
18721;DHT22;9489;50.948;3.114;2023-04-15T07:53:45;10.90;99.90
18721;DHT22;9489;50.948;3.114;2023-04-15T07:56:11;10.90;99.90
18721;DHT22;9489;50.948;3.114;2023-04-15T07:58:37;10.90;99.90
18721;DHT22;9489;50.948;3.114;2023-04-15T08:01:03;10.90;99.90
18721;DHT22;9489;50.948;3.114;2023-04-15T08:03:29;11.00;99.90
18721;DHT22;9489;50.948;3.114;2023-04-15T08:05:55;11.10;99.90
18721;DHT22;9489;50.948;3.114;2023-04-15T08:08:21;11.10;99.90
18721;DHT22;9489;50.948;3.114;2023-04-15T08:10:47;11.10;99.90
18721;DHT22;9489;50.948;3.114;2023-04-15T08:13:12;11.20;99.90
18721;DHT22;9489;50.948;3.114;2023-04-15T08:15:38;11.30;99.90
18721;DHT22;9489;50.948;3.114;2023-04-15T08:18:04;11.50;99.90
18721;DHT22;9489;50.948;3.114;2023-04-15T08:20:29;11.60;99.90
18721;DHT22;9489;50.948;3.114;2023-04-15T08:22:55;11.70;99.90
18721;DHT22;9489;50.948;3.114;2023-04-15T08:25:21;11.80;99.90
18721;DHT22;9489;50.948;3.114;2023-04-15T08:27:47;11.90;99.90
18721;DHT22;9489;50.948;3.114;2023-04-15T08:30:13;12.10;99.90
18721;DHT22;9489;50.948;3.114;2023-04-15T08:32:38;12.10;99.90
18721;DHT22;9489;50.948;3.114;2023-04-15T08:35:04;12.30;99.90
18721;DHT22;9489;50.948;3.114;2023-04-15T08:37:30;12.40;99.90
18721;DHT22;9489;50.948;3.114;2023-04-15T08:39:56;12.60;99.90
18721;DHT22;9489;50.948;3.114;2023-04-15T08:42:30;12.90;99.90
18721;DHT22;9489;50.948;3.114;2023-04-15T08:44:59;12.90;99.90
18721;DHT22;9489;50.948;3.114;2023-04-15T08:47:29;13.00;99.90
18721;DHT22;9489;50.948;3.114;2023-04-15T08:49:56;13.10;99.90
18721;DHT22;9489;50.948;3.114;2023-04-15T08:52:25;13.30;99.90
18721;DHT22;9489;50.948;3.114;2023-04-15T08:54:54;13.40;99.90
18721;DHT22;9489;50.948;3.114;2023-04-15T08:57:24;13.40;99.90
18721;DHT22;9489;50.948;3.114;2023-04-15T08:59:52;13.50;99.90
18721;DHT22;9489;50.948;3.114;2023-04-15T09:02:18;13.50;99.90
18721;DHT22;9489;50.948;3.114;2023-04-15T09:04:43;13.60;99.90
18721;DHT22;9489;50.948;3.114;2023-04-15T09:07:09;13.80;99.90
18721;DHT22;9489;50.948;3.114;2023-04-15T09:09:34;14.00;99.90
18721;DHT22;9489;50.948;3.114;2023-04-15T09:12:01;14.20;99.90
18721;DHT22;9489;50.948;3.114;2023-04-15T09:14:28;14.70;99.90
18721;DHT22;9489;50.948;3.114;2023-04-15T09:17:03;15.10;99.90
18721;DHT22;9489;50.948;3.114;2023-04-15T09:19:29;15.80;99.90
18721;DHT22;9489;50.948;3.114;2023-04-15T09:21:57;16.30;99.90
18721;DHT22;9489;50.948;3.114;2023-04-15T09:24:24;16.80;99.90
18721;DHT22;9489;50.948;3.114;2023-04-15T09:26:53;17.40;99.90
18721;DHT22;9489;50.948;3.114;2023-04-15T09:29:24;18.30;99.90
18721;DHT22;9489;50.948;3.114;2023-04-15T09:31:51;19.00;99.90
18721;DHT22;9489;50.948;3.114;2023-04-15T09:34:17;19.10;99.90
18721;DHT22;9489;50.948;3.114;2023-04-15T09:36:56;19.10;99.90
18721;DHT22;9489;50.948;3.114;2023-04-15T09:39:22;19.40;99.90
18721;DHT22;9489;50.948;3.114;2023-04-15T09:42:04;19.70;99.90
18721;DHT22;9489;50.948;3.114;2023-04-15T09:44:31;20.30;99.90
18721;DHT22;9489;50.948;3.114;2023-04-15T09:46:56;21.00;99.90
18721;DHT22;9489;50.948;3.114;2023-04-15T09:49:22;21.80;99.90
18721;DHT22;9489;50.948;3.114;2023-04-15T09:51:48;22.30;99.90
18721;DHT22;9489;50.948;3.114;2023-04-15T09:54:18;22.80;99.90
18721;DHT22;9489;50.948;3.114;2023-04-15T09:56:46;23.20;99.90
18721;DHT22;9489;50.948;3.114;2023-04-15T09:59:12;23.30;99.90
18721;DHT22;9489;50.948;3.114;2023-04-15T10:01:39;22.90;99.90
18721;DHT22;9489;50.948;3.114;2023-04-15T10:04:06;22.50;99.90
18721;DHT22;9489;50.948;3.114;2023-04-15T10:06:33;21.90;99.90
18721;DHT22;9489;50.948;3.114;2023-04-15T10:09:00;21.00;99.90
18721;DHT22;9489;50.948;3.114;2023-04-15T10:11:29;20.70;99.90
18721;DHT22;9489;50.948;3.114;2023-04-15T10:13:56;20.50;99.90
18721;DHT22;9489;50.948;3.114;2023-04-15T10:16:25;20.30;99.90
18721;DHT22;9489;50.948;3.114;2023-04-15T10:18:56;20.00;99.90
18721;DHT22;9489;50.948;3.114;2023-04-15T10:21:23;19.50;99.90
18721;DHT22;9489;50.948;3.114;2023-04-15T10:23:49;19.20;99.90
18721;DHT22;9489;50.948;3.114;2023-04-15T10:26:16;18.90;99.90
18721;DHT22;9489;50.948;3.114;2023-04-15T10:28:43;18.60;99.90
18721;DHT22;9489;50.948;3.114;2023-04-15T10:31:11;19.00;99.90
18721;DHT22;9489;50.948;3.114;2023-04-15T10:33:38;19.40;99.90
18721;DHT22;9489;50.948;3.114;2023-04-15T10:36:05;20.00;99.90
18721;DHT22;9489;50.948;3.114;2023-04-15T10:41:19;20.30;99.90
18721;DHT22;9489;50.948;3.114;2023-04-15T10:46:20;21.20;99.90
18721;DHT22;9489;50.948;3.114;2023-04-15T10:48:50;22.10;99.90
18721;DHT22;9489;50.948;3.114;2023-04-15T10:51:26;22.60;99.90
18721;DHT22;9489;50.948;3.114;2023-04-15T10:53:56;23.50;99.90
18721;DHT22;9489;50.948;3.114;2023-04-15T10:56:22;23.70;99.90
18721;DHT22;9489;50.948;3.114;2023-04-15T10:58:47;24.50;99.90
18721;DHT22;9489;50.948;3.114;2023-04-15T11:01:13;25.10;99.90
18721;DHT22;9489;50.948;3.114;2023-04-15T11:03:41;25.60;99.30
18721;DHT22;9489;50.948;3.114;2023-04-15T11:06:08;25.60;98.70
18721;DHT22;9489;50.948;3.114;2023-04-15T11:11:18;26.20;95.90
18721;DHT22;9489;50.948;3.114;2023-04-15T11:13:50;26.00;95.20
18721;DHT22;9489;50.948;3.114;2023-04-15T11:16:19;26.30;95.30
18721;DHT22;9489;50.948;3.114;2023-04-15T11:18:54;26.90;95.00
18721;DHT22;9489;50.948;3.114;2023-04-15T11:21:23;26.90;93.40
18721;DHT22;9489;50.948;3.114;2023-04-15T11:23:49;27.30;93.10
18721;DHT22;9489;50.948;3.114;2023-04-15T11:26:15;27.30;92.30
18721;DHT22;9489;50.948;3.114;2023-04-15T11:28:43;27.10;92.20
18721;DHT22;9489;50.948;3.114;2023-04-15T11:31:16;27.60;92.10
18721;DHT22;9489;50.948;3.114;2023-04-15T11:33:59;27.80;91.90
18721;DHT22;9489;50.948;3.114;2023-04-15T11:36:26;27.70;90.80
18721;DHT22;9489;50.948;3.114;2023-04-15T11:38:52;27.70;86.80
18721;DHT22;9489;50.948;3.114;2023-04-15T11:41:22;28.00;83.10
18721;DHT22;9489;50.948;3.114;2023-04-15T11:43:48;28.40;83.40
18721;DHT22;9489;50.948;3.114;2023-04-15T11:46:14;28.20;80.70
18721;DHT22;9489;50.948;3.114;2023-04-15T11:48:42;28.10;78.10
18721;DHT22;9489;50.948;3.114;2023-04-15T11:51:08;27.90;78.90
18721;DHT22;9489;50.948;3.114;2023-04-15T11:53:43;28.30;79.30
18721;DHT22;9489;50.948;3.114;2023-04-15T11:56:19;28.30;79.30
18721;DHT22;9489;50.948;3.114;2023-04-15T11:58:46;27.70;80.40
18721;DHT22;9489;50.948;3.114;2023-04-15T12:01:12;26.80;80.80
18721;DHT22;9489;50.948;3.114;2023-04-15T12:03:42;25.50;80.90
18721;DHT22;9489;50.948;3.114;2023-04-15T12:06:18;24.90;82.50
18721;DHT22;9489;50.948;3.114;2023-04-15T12:11:17;25.50;79.10
18721;DHT22;9489;50.948;3.114;2023-04-15T12:13:49;25.80;79.80
18721;DHT22;9489;50.948;3.114;2023-04-15T12:16:19;26.50;79.70
18721;DHT22;9489;50.948;3.114;2023-04-15T12:18:52;27.40;80.40
18721;DHT22;9489;50.948;3.114;2023-04-15T12:21:21;28.10;79.10
18721;DHT22;9489;50.948;3.114;2023-04-15T12:23:48;26.40;78.50
18721;DHT22;9489;50.948;3.114;2023-04-15T12:26:15;25.00;79.50
18721;DHT22;9489;50.948;3.114;2023-04-15T12:28:41;24.90;77.50
18721;DHT22;9489;50.948;3.114;2023-04-15T12:31:09;25.50;72.10
18721;DHT22;9489;50.948;3.114;2023-04-15T12:33:35;26.20;68.80
18721;DHT22;9489;50.948;3.114;2023-04-15T12:36:01;26.80;68.30
18721;DHT22;9489;50.948;3.114;2023-04-15T12:38:27;27.20;61.50
18721;DHT22;9489;50.948;3.114;2023-04-15T12:40:53;27.00;61.90
18721;DHT22;9489;50.948;3.114;2023-04-15T12:43:18;27.10;58.90
18721;DHT22;9489;50.948;3.114;2023-04-15T12:45:44;27.40;61.20
18721;DHT22;9489;50.948;3.114;2023-04-15T12:48:10;27.70;63.30
18721;DHT22;9489;50.948;3.114;2023-04-15T12:50:35;27.50;63.10
18721;DHT22;9489;50.948;3.114;2023-04-15T12:53:02;27.70;63.70
18721;DHT22;9489;50.948;3.114;2023-04-15T12:55:28;27.60;65.70
18721;DHT22;9489;50.948;3.114;2023-04-15T12:57:55;27.40;66.60
18721;DHT22;9489;50.948;3.114;2023-04-15T13:00:21;27.10;68.50
18721;DHT22;9489;50.948;3.114;2023-04-15T13:02:47;26.90;70.10
18721;DHT22;9489;50.948;3.114;2023-04-15T13:05:13;26.00;71.70
18721;DHT22;9489;50.948;3.114;2023-04-15T13:07:40;24.80;75.20
18721;DHT22;9489;50.948;3.114;2023-04-15T13:10:06;24.50;78.40
18721;DHT22;9489;50.948;3.114;2023-04-15T13:12:32;25.00;80.20
18721;DHT22;9489;50.948;3.114;2023-04-15T13:15:02;25.20;80.80
18721;DHT22;9489;50.948;3.114;2023-04-15T13:17:28;25.30;80.90
18721;DHT22;9489;50.948;3.114;2023-04-15T13:19:54;24.80;79.30
18721;DHT22;9489;50.948;3.114;2023-04-15T13:22:19;24.90;79.40
18721;DHT22;9489;50.948;3.114;2023-04-15T13:24:46;25.00;78.00
18721;DHT22;9489;50.948;3.114;2023-04-15T13:27:11;25.20;77.90
18721;DHT22;9489;50.948;3.114;2023-04-15T13:29:37;24.80;77.90
18721;DHT22;9489;50.948;3.114;2023-04-15T13:32:05;24.50;79.30
18721;DHT22;9489;50.948;3.114;2023-04-15T13:34:31;24.70;77.70
18721;DHT22;9489;50.948;3.114;2023-04-15T13:36:56;24.80;79.00
18721;DHT22;9489;50.948;3.114;2023-04-15T13:39:22;25.10;79.80
18721;DHT22;9489;50.948;3.114;2023-04-15T13:41:48;25.30;80.00
18721;DHT22;9489;50.948;3.114;2023-04-15T13:44:13;25.30;79.50
18721;DHT22;9489;50.948;3.114;2023-04-15T13:46:39;24.30;81.80
18721;DHT22;9489;50.948;3.114;2023-04-15T13:49:07;24.60;81.30
18721;DHT22;9489;50.948;3.114;2023-04-15T13:51:32;24.60;80.10
18721;DHT22;9489;50.948;3.114;2023-04-15T13:54:00;24.60;81.60
18721;DHT22;9489;50.948;3.114;2023-04-15T13:56:26;24.60;83.00
18721;DHT22;9489;50.948;3.114;2023-04-15T13:58:52;24.00;81.80
18721;DHT22;9489;50.948;3.114;2023-04-15T14:01:19;24.00;83.10
18721;DHT22;9489;50.948;3.114;2023-04-15T14:03:44;23.50;84.80
18721;DHT22;9489;50.948;3.114;2023-04-15T14:06:10;23.50;86.20
18721;DHT22;9489;50.948;3.114;2023-04-15T14:08:36;23.10;86.90
18721;DHT22;9489;50.948;3.114;2023-04-15T14:11:01;22.80;86.20
18721;DHT22;9489;50.948;3.114;2023-04-15T14:13:27;22.30;88.80
18721;DHT22;9489;50.948;3.114;2023-04-15T14:15:53;22.30;90.10
18721;DHT22;9489;50.948;3.114;2023-04-15T14:18:18;22.20;90.20
18721;DHT22;9489;50.948;3.114;2023-04-15T14:20:44;22.00;90.50
18721;DHT22;9489;50.948;3.114;2023-04-15T14:23:10;21.70;90.10
18721;DHT22;9489;50.948;3.114;2023-04-15T14:25:35;21.20;91.10
18721;DHT22;9489;50.948;3.114;2023-04-15T14:28:03;21.10;92.60
18721;DHT22;9489;50.948;3.114;2023-04-15T14:30:29;20.90;93.40
18721;DHT22;9489;50.948;3.114;2023-04-15T14:32:55;20.60;93.40
18721;DHT22;9489;50.948;3.114;2023-04-15T14:35:20;20.40;93.30
18721;DHT22;9489;50.948;3.114;2023-04-15T14:37:46;20.20;92.90
18721;DHT22;9489;50.948;3.114;2023-04-15T14:40:11;19.80;93.50
18721;DHT22;9489;50.948;3.114;2023-04-15T14:42:37;19.80;94.60
18721;DHT22;9489;50.948;3.114;2023-04-15T14:45:03;19.60;94.50
18721;DHT22;9489;50.948;3.114;2023-04-15T14:47:28;19.60;94.20
18721;DHT22;9489;50.948;3.114;2023-04-15T14:49:55;18.90;95.00
18721;DHT22;9489;50.948;3.114;2023-04-15T14:52:21;18.80;96.20
18721;DHT22;9489;50.948;3.114;2023-04-15T14:54:46;18.60;96.60
18721;DHT22;9489;50.948;3.114;2023-04-15T14:57:12;18.60;97.00
18721;DHT22;9489;50.948;3.114;2023-04-15T14:59:38;18.40;97.40
18721;DHT22;9489;50.948;3.114;2023-04-15T15:02:03;18.30;97.20
18721;DHT22;9489;50.948;3.114;2023-04-15T15:04:29;18.30;96.70
18721;DHT22;9489;50.948;3.114;2023-04-15T15:06:57;18.20;97.60
18721;DHT22;9489;50.948;3.114;2023-04-15T15:09:22;18.00;98.50
18721;DHT22;9489;50.948;3.114;2023-04-15T15:11:49;18.10;98.70
18721;DHT22;9489;50.948;3.114;2023-04-15T15:14:15;18.10;98.90
18721;DHT22;9489;50.948;3.114;2023-04-15T15:16:41;18.00;98.20
18721;DHT22;9489;50.948;3.114;2023-04-15T15:19:07;17.80;98.20
18721;DHT22;9489;50.948;3.114;2023-04-15T15:21:33;17.70;97.40
18721;DHT22;9489;50.948;3.114;2023-04-15T15:23:58;17.60;95.80
18721;DHT22;9489;50.948;3.114;2023-04-15T15:26:24;17.60;96.40
18721;DHT22;9489;50.948;3.114;2023-04-15T15:28:50;17.60;94.60
18721;DHT22;9489;50.948;3.114;2023-04-15T15:31:15;17.50;93.90
18721;DHT22;9489;50.948;3.114;2023-04-15T15:33:41;17.50;94.30
18721;DHT22;9489;50.948;3.114;2023-04-15T15:36:06;17.30;94.00
18721;DHT22;9489;50.948;3.114;2023-04-15T15:38:33;17.20;93.90
18721;DHT22;9489;50.948;3.114;2023-04-15T15:40:59;17.20;93.80
18721;DHT22;9489;50.948;3.114;2023-04-15T15:43:25;17.00;94.70
18721;DHT22;9489;50.948;3.114;2023-04-15T15:45:50;16.80;95.10
18721;DHT22;9489;50.948;3.114;2023-04-15T15:48:20;16.80;95.00
18721;DHT22;9489;50.948;3.114;2023-04-15T15:50:46;16.80;95.80
18721;DHT22;9489;50.948;3.114;2023-04-15T15:53:12;16.80;96.30
18721;DHT22;9489;50.948;3.114;2023-04-15T15:55:42;16.80;95.40